sensor_id;sensor_type;location;lat;lon;timestamp;P1;durP1;ratioP1;P2;durP2;ratioP2
15716;SDS011;7960;50.908;4.204;2022-09-21T00:01:56;10.40;;;4.70;;
15716;SDS011;7960;50.908;4.204;2022-09-21T00:04:23;5.57;;;4.27;;
15716;SDS011;7960;50.908;4.204;2022-09-21T00:06:50;11.37;;;4.60;;
15716;SDS011;7960;50.908;4.204;2022-09-21T00:09:17;9.50;;;4.67;;
15716;SDS011;7960;50.908;4.204;2022-09-21T00:11:45;9.33;;;5.00;;
15716;SDS011;7960;50.908;4.204;2022-09-21T00:14:12;9.40;;;4.57;;
15716;SDS011;7960;50.908;4.204;2022-09-21T00:16:40;6.53;;;4.67;;
15716;SDS011;7960;50.908;4.204;2022-09-21T00:19:08;9.47;;;4.90;;
15716;SDS011;7960;50.908;4.204;2022-09-21T00:21:36;6.37;;;5.07;;
15716;SDS011;7960;50.908;4.204;2022-09-21T00:24:03;7.30;;;4.70;;
15716;SDS011;7960;50.908;4.204;2022-09-21T00:26:31;6.17;;;4.47;;
15716;SDS011;7960;50.908;4.204;2022-09-21T00:29:00;7.57;;;4.90;;
15716;SDS011;7960;50.908;4.204;2022-09-21T00:31:28;9.50;;;4.73;;
15716;SDS011;7960;50.908;4.204;2022-09-21T00:33:56;7.60;;;5.13;;
15716;SDS011;7960;50.908;4.204;2022-09-21T00:36:24;11.90;;;5.33;;
15716;SDS011;7960;50.908;4.204;2022-09-21T00:38:52;11.30;;;5.00;;
15716;SDS011;7960;50.908;4.204;2022-09-21T00:41:21;5.67;;;4.40;;
15716;SDS011;7960;50.908;4.204;2022-09-21T00:46:54;8.83;;;4.97;;
15716;SDS011;7960;50.908;4.204;2022-09-21T00:49:23;6.97;;;4.93;;
15716;SDS011;7960;50.908;4.204;2022-09-21T00:51:50;8.27;;;5.70;;
15716;SDS011;7960;50.908;4.204;2022-09-21T00:54:19;7.27;;;5.67;;
15716;SDS011;7960;50.908;4.204;2022-09-21T00:56:49;8.33;;;5.53;;
15716;SDS011;7960;50.908;4.204;2022-09-21T00:59:16;10.87;;;5.63;;
15716;SDS011;7960;50.908;4.204;2022-09-21T01:01:46;8.40;;;6.03;;
15716;SDS011;7960;50.908;4.204;2022-09-21T01:04:12;10.83;;;6.17;;
15716;SDS011;7960;50.908;4.204;2022-09-21T01:06:42;8.27;;;5.80;;
15716;SDS011;7960;50.908;4.204;2022-09-21T01:09:11;7.53;;;6.03;;
15716;SDS011;7960;50.908;4.204;2022-09-21T01:11:42;13.93;;;6.27;;
15716;SDS011;7960;50.908;4.204;2022-09-21T01:14:25;9.73;;;6.00;;
15716;SDS011;7960;50.908;4.204;2022-09-21T01:17:13;9.23;;;6.40;;
15716;SDS011;7960;50.908;4.204;2022-09-21T01:19:51;10.30;;;6.13;;
15716;SDS011;7960;50.908;4.204;2022-09-21T01:22:45;11.60;;;6.00;;
15716;SDS011;7960;50.908;4.204;2022-09-21T01:25:26;10.63;;;6.10;;
15716;SDS011;7960;50.908;4.204;2022-09-21T01:28:05;10.70;;;6.80;;
15716;SDS011;7960;50.908;4.204;2022-09-21T01:30:41;11.03;;;5.60;;
15716;SDS011;7960;50.908;4.204;2022-09-21T01:33:12;12.30;;;6.30;;
15716;SDS011;7960;50.908;4.204;2022-09-21T01:35:43;10.63;;;5.90;;
15716;SDS011;7960;50.908;4.204;2022-09-21T01:38:14;9.03;;;6.10;;
15716;SDS011;7960;50.908;4.204;2022-09-21T01:40:48;9.90;;;6.37;;
15716;SDS011;7960;50.908;4.204;2022-09-21T01:43:19;10.90;;;5.97;;
15716;SDS011;7960;50.908;4.204;2022-09-21T01:45:51;10.40;;;5.97;;
15716;SDS011;7960;50.908;4.204;2022-09-21T01:48:20;9.57;;;5.87;;
15716;SDS011;7960;50.908;4.204;2022-09-21T01:50:50;10.60;;;6.60;;
15716;SDS011;7960;50.908;4.204;2022-09-21T01:53:21;6.30;;;5.60;;
15716;SDS011;7960;50.908;4.204;2022-09-21T01:55:52;10.17;;;5.70;;
15716;SDS011;7960;50.908;4.204;2022-09-21T01:58:23;10.40;;;6.37;;
15716;SDS011;7960;50.908;4.204;2022-09-21T02:00:57;10.87;;;6.67;;
15716;SDS011;7960;50.908;4.204;2022-09-21T02:03:26;9.27;;;6.27;;
15716;SDS011;7960;50.908;4.204;2022-09-21T02:05:58;8.73;;;6.30;;
15716;SDS011;7960;50.908;4.204;2022-09-21T02:08:28;13.33;;;7.20;;
15716;SDS011;7960;50.908;4.204;2022-09-21T02:10:56;12.03;;;7.03;;
15716;SDS011;7960;50.908;4.204;2022-09-21T02:13:25;11.63;;;7.17;;
15716;SDS011;7960;50.908;4.204;2022-09-21T02:16:02;12.30;;;7.60;;
15716;SDS011;7960;50.908;4.204;2022-09-21T02:18:42;9.47;;;7.73;;
15716;SDS011;7960;50.908;4.204;2022-09-21T02:21:15;10.20;;;7.23;;
15716;SDS011;7960;50.908;4.204;2022-09-21T02:23:48;13.60;;;7.33;;
15716;SDS011;7960;50.908;4.204;2022-09-21T02:26:23;11.23;;;7.63;;
15716;SDS011;7960;50.908;4.204;2022-09-21T02:28:57;16.20;;;8.00;;
15716;SDS011;7960;50.908;4.204;2022-09-21T02:31:35;15.77;;;7.53;;
15716;SDS011;7960;50.908;4.204;2022-09-21T02:34:09;9.53;;;7.27;;
15716;SDS011;7960;50.908;4.204;2022-09-21T02:36:42;8.97;;;7.30;;
15716;SDS011;7960;50.908;4.204;2022-09-21T02:39:14;14.57;;;8.40;;
15716;SDS011;7960;50.908;4.204;2022-09-21T02:41:45;12.00;;;8.37;;
15716;SDS011;7960;50.908;4.204;2022-09-21T02:44:19;12.33;;;8.60;;
15716;SDS011;7960;50.908;4.204;2022-09-21T02:46:52;15.90;;;8.97;;
15716;SDS011;7960;50.908;4.204;2022-09-21T02:49:23;11.93;;;9.37;;
15716;SDS011;7960;50.908;4.204;2022-09-21T02:51:56;12.40;;;8.87;;
15716;SDS011;7960;50.908;4.204;2022-09-21T02:54:25;14.07;;;9.13;;
15716;SDS011;7960;50.908;4.204;2022-09-21T02:56:55;11.87;;;8.93;;
15716;SDS011;7960;50.908;4.204;2022-09-21T02:59:25;12.90;;;8.77;;
15716;SDS011;7960;50.908;4.204;2022-09-21T03:01:53;13.30;;;9.53;;
15716;SDS011;7960;50.908;4.204;2022-09-21T03:04:20;14.83;;;10.23;;
15716;SDS011;7960;50.908;4.204;2022-09-21T03:06:48;13.53;;;10.33;;
15716;SDS011;7960;50.908;4.204;2022-09-21T03:09:15;13.63;;;10.47;;
15716;SDS011;7960;50.908;4.204;2022-09-21T03:11:42;13.83;;;10.83;;
15716;SDS011;7960;50.908;4.204;2022-09-21T03:14:09;17.10;;;11.30;;
15716;SDS011;7960;50.908;4.204;2022-09-21T03:16:36;18.13;;;11.50;;
15716;SDS011;7960;50.908;4.204;2022-09-21T03:19:05;14.00;;;10.47;;
15716;SDS011;7960;50.908;4.204;2022-09-21T03:21:33;14.93;;;10.40;;
15716;SDS011;7960;50.908;4.204;2022-09-21T03:23:59;13.53;;;10.80;;
15716;SDS011;7960;50.908;4.204;2022-09-21T03:26:28;16.20;;;11.33;;
15716;SDS011;7960;50.908;4.204;2022-09-21T03:28:55;14.33;;;10.37;;
15716;SDS011;7960;50.908;4.204;2022-09-21T03:31:21;14.70;;;11.63;;
15716;SDS011;7960;50.908;4.204;2022-09-21T03:33:48;18.37;;;11.87;;
15716;SDS011;7960;50.908;4.204;2022-09-21T03:36:17;11.83;;;10.63;;
15716;SDS011;7960;50.908;4.204;2022-09-21T03:38:45;13.87;;;10.70;;
15716;SDS011;7960;50.908;4.204;2022-09-21T03:41:11;15.23;;;11.47;;
15716;SDS011;7960;50.908;4.204;2022-09-21T03:43:39;16.27;;;10.90;;
15716;SDS011;7960;50.908;4.204;2022-09-21T03:46:06;15.63;;;11.53;;
15716;SDS011;7960;50.908;4.204;2022-09-21T03:48:32;13.67;;;11.70;;
15716;SDS011;7960;50.908;4.204;2022-09-21T03:50:59;17.20;;;11.57;;
15716;SDS011;7960;50.908;4.204;2022-09-21T03:53:27;19.43;;;12.67;;
15716;SDS011;7960;50.908;4.204;2022-09-21T03:55:54;17.10;;;12.57;;
15716;SDS011;7960;50.908;4.204;2022-09-21T03:58:22;14.67;;;11.70;;
15716;SDS011;7960;50.908;4.204;2022-09-21T04:00:49;17.00;;;11.40;;
15716;SDS011;7960;50.908;4.204;2022-09-21T04:03:18;19.97;;;12.30;;
15716;SDS011;7960;50.908;4.204;2022-09-21T04:05:45;19.10;;;12.10;;
15716;SDS011;7960;50.908;4.204;2022-09-21T04:08:12;26.07;;;21.63;;
15716;SDS011;7960;50.908;4.204;2022-09-21T04:10:42;20.83;;;12.27;;
15716;SDS011;7960;50.908;4.204;2022-09-21T04:13:09;26.77;;;18.77;;
15716;SDS011;7960;50.908;4.204;2022-09-21T04:15:37;22.83;;;12.97;;
15716;SDS011;7960;50.908;4.204;2022-09-21T04:18:04;17.87;;;12.00;;
15716;SDS011;7960;50.908;4.204;2022-09-21T04:20:32;16.63;;;11.73;;
15716;SDS011;7960;50.908;4.204;2022-09-21T04:22:58;20.50;;;11.83;;
15716;SDS011;7960;50.908;4.204;2022-09-21T04:25:25;17.03;;;12.03;;
15716;SDS011;7960;50.908;4.204;2022-09-21T04:27:54;20.47;;;12.17;;
15716;SDS011;7960;50.908;4.204;2022-09-21T04:30:21;18.00;;;12.30;;
15716;SDS011;7960;50.908;4.204;2022-09-21T04:32:47;16.23;;;12.00;;
15716;SDS011;7960;50.908;4.204;2022-09-21T04:35:14;18.40;;;12.70;;
15716;SDS011;7960;50.908;4.204;2022-09-21T04:37:41;21.80;;;13.80;;
15716;SDS011;7960;50.908;4.204;2022-09-21T04:40:08;21.63;;;13.07;;
15716;SDS011;7960;50.908;4.204;2022-09-21T04:42:35;20.57;;;13.33;;
15716;SDS011;7960;50.908;4.204;2022-09-21T04:45:03;17.73;;;12.93;;
15716;SDS011;7960;50.908;4.204;2022-09-21T04:47:31;23.63;;;14.43;;
15716;SDS011;7960;50.908;4.204;2022-09-21T04:49:58;19.87;;;14.20;;
15716;SDS011;7960;50.908;4.204;2022-09-21T04:52:25;19.80;;;13.43;;
15716;SDS011;7960;50.908;4.204;2022-09-21T04:54:52;18.30;;;13.70;;
15716;SDS011;7960;50.908;4.204;2022-09-21T04:57:20;22.37;;;13.93;;
15716;SDS011;7960;50.908;4.204;2022-09-21T04:59:47;22.87;;;14.87;;
15716;SDS011;7960;50.908;4.204;2022-09-21T05:02:15;21.63;;;14.60;;
15716;SDS011;7960;50.908;4.204;2022-09-21T05:04:42;20.57;;;15.00;;
15716;SDS011;7960;50.908;4.204;2022-09-21T05:07:09;26.53;;;17.07;;
15716;SDS011;7960;50.908;4.204;2022-09-21T05:09:36;19.97;;;16.40;;
15716;SDS011;7960;50.908;4.204;2022-09-21T05:12:20;24.73;;;17.50;;
15716;SDS011;7960;50.908;4.204;2022-09-21T05:14:47;23.77;;;17.23;;
15716;SDS011;7960;50.908;4.204;2022-09-21T05:17:15;22.73;;;16.27;;
15716;SDS011;7960;50.908;4.204;2022-09-21T05:19:46;24.87;;;18.03;;
15716;SDS011;7960;50.908;4.204;2022-09-21T05:22:13;24.47;;;17.13;;
15716;SDS011;7960;50.908;4.204;2022-09-21T05:24:40;26.67;;;17.33;;
15716;SDS011;7960;50.908;4.204;2022-09-21T05:27:06;25.97;;;16.63;;
15716;SDS011;7960;50.908;4.204;2022-09-21T05:29:33;26.63;;;17.77;;
15716;SDS011;7960;50.908;4.204;2022-09-21T05:32:02;24.60;;;15.97;;
15716;SDS011;7960;50.908;4.204;2022-09-21T05:34:37;22.97;;;16.17;;
15716;SDS011;7960;50.908;4.204;2022-09-21T05:37:16;24.87;;;17.23;;
15716;SDS011;7960;50.908;4.204;2022-09-21T05:39:55;28.00;;;17.70;;
15716;SDS011;7960;50.908;4.204;2022-09-21T05:42:23;23.97;;;16.70;;
15716;SDS011;7960;50.908;4.204;2022-09-21T05:44:50;17.47;;;15.07;;
15716;SDS011;7960;50.908;4.204;2022-09-21T05:47:21;27.70;;;17.27;;
15716;SDS011;7960;50.908;4.204;2022-09-21T05:49:55;24.13;;;17.03;;
15716;SDS011;7960;50.908;4.204;2022-09-21T05:52:28;21.80;;;16.70;;
15716;SDS011;7960;50.908;4.204;2022-09-21T05:55:05;24.53;;;17.70;;
15716;SDS011;7960;50.908;4.204;2022-09-21T05:57:50;23.20;;;17.37;;
15716;SDS011;7960;50.908;4.204;2022-09-21T06:00:22;23.00;;;17.07;;
15716;SDS011;7960;50.908;4.204;2022-09-21T06:02:53;28.00;;;18.07;;
15716;SDS011;7960;50.908;4.204;2022-09-21T06:05:32;29.97;;;18.60;;
15716;SDS011;7960;50.908;4.204;2022-09-21T06:07:59;27.63;;;18.70;;
15716;SDS011;7960;50.908;4.204;2022-09-21T06:10:32;24.50;;;18.40;;
15716;SDS011;7960;50.908;4.204;2022-09-21T06:12:59;25.40;;;17.80;;
15716;SDS011;7960;50.908;4.204;2022-09-21T06:15:26;22.83;;;17.47;;
15716;SDS011;7960;50.908;4.204;2022-09-21T06:17:53;23.33;;;17.30;;
15716;SDS011;7960;50.908;4.204;2022-09-21T06:20:20;25.30;;;17.87;;
15716;SDS011;7960;50.908;4.204;2022-09-21T06:22:50;25.77;;;18.57;;
15716;SDS011;7960;50.908;4.204;2022-09-21T06:25:17;23.67;;;17.13;;
15716;SDS011;7960;50.908;4.204;2022-09-21T06:27:45;30.87;;;17.17;;
15716;SDS011;7960;50.908;4.204;2022-09-21T06:30:11;27.97;;;17.80;;
15716;SDS011;7960;50.908;4.204;2022-09-21T06:32:38;21.93;;;17.43;;
15716;SDS011;7960;50.908;4.204;2022-09-21T06:35:05;21.37;;;16.93;;
15716;SDS011;7960;50.908;4.204;2022-09-21T06:37:33;27.27;;;16.40;;
15716;SDS011;7960;50.908;4.204;2022-09-21T06:40:04;22.57;;;15.00;;
15716;SDS011;7960;50.908;4.204;2022-09-21T06:42:31;24.70;;;15.87;;
15716;SDS011;7960;50.908;4.204;2022-09-21T06:44:58;23.37;;;15.80;;
15716;SDS011;7960;50.908;4.204;2022-09-21T06:47:25;24.17;;;15.57;;
15716;SDS011;7960;50.908;4.204;2022-09-21T06:49:52;21.90;;;15.10;;
15716;SDS011;7960;50.908;4.204;2022-09-21T06:52:19;23.03;;;14.27;;
15716;SDS011;7960;50.908;4.204;2022-09-21T06:54:46;21.33;;;14.33;;
15716;SDS011;7960;50.908;4.204;2022-09-21T06:57:14;21.97;;;15.03;;
15716;SDS011;7960;50.908;4.204;2022-09-21T06:59:41;18.37;;;15.10;;
15716;SDS011;7960;50.908;4.204;2022-09-21T07:02:08;27.87;;;16.83;;
15716;SDS011;7960;50.908;4.204;2022-09-21T07:04:35;26.20;;;16.50;;
15716;SDS011;7960;50.908;4.204;2022-09-21T07:07:02;25.23;;;16.50;;
15716;SDS011;7960;50.908;4.204;2022-09-21T07:09:29;22.37;;;16.50;;
15716;SDS011;7960;50.908;4.204;2022-09-21T07:11:56;31.97;;;16.37;;
15716;SDS011;7960;50.908;4.204;2022-09-21T07:14:25;21.93;;;15.57;;
15716;SDS011;7960;50.908;4.204;2022-09-21T07:16:52;26.27;;;16.30;;
15716;SDS011;7960;50.908;4.204;2022-09-21T07:19:18;24.13;;;15.63;;
15716;SDS011;7960;50.908;4.204;2022-09-21T07:21:45;24.40;;;15.97;;
15716;SDS011;7960;50.908;4.204;2022-09-21T07:24:12;24.40;;;15.77;;
15716;SDS011;7960;50.908;4.204;2022-09-21T07:26:40;22.30;;;16.23;;
15716;SDS011;7960;50.908;4.204;2022-09-21T07:29:07;22.60;;;15.90;;
15716;SDS011;7960;50.908;4.204;2022-09-21T07:31:35;20.83;;;15.77;;
15716;SDS011;7960;50.908;4.204;2022-09-21T07:34:02;22.23;;;14.27;;
15716;SDS011;7960;50.908;4.204;2022-09-21T07:36:29;25.97;;;15.77;;
15716;SDS011;7960;50.908;4.204;2022-09-21T07:38:56;24.43;;;15.37;;
15716;SDS011;7960;50.908;4.204;2022-09-21T07:41:23;29.80;;;15.87;;
15716;SDS011;7960;50.908;4.204;2022-09-21T07:43:49;26.37;;;16.27;;
15716;SDS011;7960;50.908;4.204;2022-09-21T07:46:17;27.10;;;15.40;;
15716;SDS011;7960;50.908;4.204;2022-09-21T07:48:46;30.47;;;16.17;;
15716;SDS011;7960;50.908;4.204;2022-09-21T07:51:13;24.47;;;15.23;;
15716;SDS011;7960;50.908;4.204;2022-09-21T07:53:41;20.23;;;15.43;;
15716;SDS011;7960;50.908;4.204;2022-09-21T07:56:10;21.73;;;16.23;;
15716;SDS011;7960;50.908;4.204;2022-09-21T07:58:38;28.77;;;16.37;;
15716;SDS011;7960;50.908;4.204;2022-09-21T08:01:22;22.23;;;15.77;;
15716;SDS011;7960;50.908;4.204;2022-09-21T08:03:52;21.97;;;16.23;;
15716;SDS011;7960;50.908;4.204;2022-09-21T08:06:20;21.47;;;16.13;;
15716;SDS011;7960;50.908;4.204;2022-09-21T08:08:48;23.57;;;16.83;;
15716;SDS011;7960;50.908;4.204;2022-09-21T08:11:16;32.47;;;16.57;;
15716;SDS011;7960;50.908;4.204;2022-09-21T08:13:46;26.20;;;16.27;;
15716;SDS011;7960;50.908;4.204;2022-09-21T08:16:13;23.60;;;16.97;;
15716;SDS011;7960;50.908;4.204;2022-09-21T08:18:40;23.57;;;16.83;;
15716;SDS011;7960;50.908;4.204;2022-09-21T08:21:09;23.13;;;16.77;;
15716;SDS011;7960;50.908;4.204;2022-09-21T08:23:36;21.83;;;17.23;;
15716;SDS011;7960;50.908;4.204;2022-09-21T08:26:10;18.50;;;15.50;;
15716;SDS011;7960;50.908;4.204;2022-09-21T08:28:43;21.70;;;14.77;;
15716;SDS011;7960;50.908;4.204;2022-09-21T08:31:13;24.03;;;16.23;;
15716;SDS011;7960;50.908;4.204;2022-09-21T08:33:40;22.90;;;14.50;;
15716;SDS011;7960;50.908;4.204;2022-09-21T08:36:09;23.63;;;13.43;;
15716;SDS011;7960;50.908;4.204;2022-09-21T08:38:36;18.33;;;12.83;;
15716;SDS011;7960;50.908;4.204;2022-09-21T08:41:10;15.53;;;11.37;;
15716;SDS011;7960;50.908;4.204;2022-09-21T08:43:42;15.43;;;11.33;;
15716;SDS011;7960;50.908;4.204;2022-09-21T08:46:11;19.00;;;9.93;;
15716;SDS011;7960;50.908;4.204;2022-09-21T08:48:42;17.70;;;9.20;;
15716;SDS011;7960;50.908;4.204;2022-09-21T08:51:19;11.87;;;8.77;;
15716;SDS011;7960;50.908;4.204;2022-09-21T08:53:49;12.00;;;8.70;;
15716;SDS011;7960;50.908;4.204;2022-09-21T08:56:18;16.50;;;10.10;;
15716;SDS011;7960;50.908;4.204;2022-09-21T08:58:47;15.97;;;8.83;;
15716;SDS011;7960;50.908;4.204;2022-09-21T09:01:19;11.40;;;7.27;;
15716;SDS011;7960;50.908;4.204;2022-09-21T09:03:59;11.97;;;6.60;;
15716;SDS011;7960;50.908;4.204;2022-09-21T09:06:40;8.57;;;6.40;;
15716;SDS011;7960;50.908;4.204;2022-09-21T09:09:23;13.23;;;6.70;;
15716;SDS011;7960;50.908;4.204;2022-09-21T09:11:59;6.77;;;5.33;;
15716;SDS011;7960;50.908;4.204;2022-09-21T09:14:39;11.97;;;6.63;;
15716;SDS011;7960;50.908;4.204;2022-09-21T09:20:12;14.30;;;4.63;;
15716;SDS011;7960;50.908;4.204;2022-09-21T09:22:49;16.33;;;5.33;;
15716;SDS011;7960;50.908;4.204;2022-09-21T09:25:25;10.13;;;5.10;;
15716;SDS011;7960;50.908;4.204;2022-09-21T09:27:57;12.43;;;5.00;;
15716;SDS011;7960;50.908;4.204;2022-09-21T09:30:30;16.63;;;6.00;;
15716;SDS011;7960;50.908;4.204;2022-09-21T09:33:01;7.10;;;3.20;;
15716;SDS011;7960;50.908;4.204;2022-09-21T09:35:34;16.17;;;4.87;;
15716;SDS011;7960;50.908;4.204;2022-09-21T09:38:08;11.07;;;3.83;;
15716;SDS011;7960;50.908;4.204;2022-09-21T09:40:54;8.20;;;3.87;;
15716;SDS011;7960;50.908;4.204;2022-09-21T09:43:35;5.33;;;3.47;;
15716;SDS011;7960;50.908;4.204;2022-09-21T09:46:13;8.07;;;3.73;;
15716;SDS011;7960;50.908;4.204;2022-09-21T09:49:08;6.53;;;3.60;;
15716;SDS011;7960;50.908;4.204;2022-09-21T09:51:44;7.03;;;3.47;;
15716;SDS011;7960;50.908;4.204;2022-09-21T09:54:15;7.63;;;3.47;;
15716;SDS011;7960;50.908;4.204;2022-09-21T09:56:45;13.37;;;4.10;;
15716;SDS011;7960;50.908;4.204;2022-09-21T09:59:15;7.23;;;4.17;;
15716;SDS011;7960;50.908;4.204;2022-09-21T10:01:57;8.00;;;4.20;;
15716;SDS011;7960;50.908;4.204;2022-09-21T10:04:25;10.67;;;3.67;;
15716;SDS011;7960;50.908;4.204;2022-09-21T10:06:53;10.10;;;3.50;;
15716;SDS011;7960;50.908;4.204;2022-09-21T10:09:24;9.73;;;3.40;;
15716;SDS011;7960;50.908;4.204;2022-09-21T10:11:54;6.53;;;3.10;;
15716;SDS011;7960;50.908;4.204;2022-09-21T10:14:23;5.33;;;2.80;;
15716;SDS011;7960;50.908;4.204;2022-09-21T10:16:52;8.17;;;3.00;;
15716;SDS011;7960;50.908;4.204;2022-09-21T10:19:21;6.20;;;2.63;;
15716;SDS011;7960;50.908;4.204;2022-09-21T10:21:51;11.47;;;3.00;;
15716;SDS011;7960;50.908;4.204;2022-09-21T10:24:24;7.40;;;2.43;;
15716;SDS011;7960;50.908;4.204;2022-09-21T10:26:54;9.23;;;2.37;;
15716;SDS011;7960;50.908;4.204;2022-09-21T10:29:28;4.93;;;1.80;;
15716;SDS011;7960;50.908;4.204;2022-09-21T10:31:58;5.43;;;2.37;;
15716;SDS011;7960;50.908;4.204;2022-09-21T10:34:27;9.70;;;2.00;;
15716;SDS011;7960;50.908;4.204;2022-09-21T10:36:56;4.80;;;2.17;;
15716;SDS011;7960;50.908;4.204;2022-09-21T10:39:27;8.10;;;2.40;;
15716;SDS011;7960;50.908;4.204;2022-09-21T10:42:01;4.10;;;2.00;;
15716;SDS011;7960;50.908;4.204;2022-09-21T10:44:35;3.63;;;1.90;;
15716;SDS011;7960;50.908;4.204;2022-09-21T10:47:18;8.93;;;3.27;;
15716;SDS011;7960;50.908;4.204;2022-09-21T10:49:47;10.83;;;4.13;;
15716;SDS011;7960;50.908;4.204;2022-09-21T10:52:17;7.67;;;2.30;;
15716;SDS011;7960;50.908;4.204;2022-09-21T10:54:49;6.00;;;2.50;;
15716;SDS011;7960;50.908;4.204;2022-09-21T10:57:19;5.13;;;2.07;;
15716;SDS011;7960;50.908;4.204;2022-09-21T10:59:48;4.93;;;2.43;;
15716;SDS011;7960;50.908;4.204;2022-09-21T11:02:26;5.30;;;1.73;;
15716;SDS011;7960;50.908;4.204;2022-09-21T11:05:01;5.73;;;2.00;;
15716;SDS011;7960;50.908;4.204;2022-09-21T11:07:36;6.83;;;2.27;;
15716;SDS011;7960;50.908;4.204;2022-09-21T11:10:13;3.73;;;1.77;;
15716;SDS011;7960;50.908;4.204;2022-09-21T11:12:51;5.07;;;1.70;;
15716;SDS011;7960;50.908;4.204;2022-09-21T11:15:34;4.77;;;2.00;;
15716;SDS011;7960;50.908;4.204;2022-09-21T11:18:08;8.83;;;1.93;;
15716;SDS011;7960;50.908;4.204;2022-09-21T11:20:42;4.73;;;1.77;;
15716;SDS011;7960;50.908;4.204;2022-09-21T11:23:15;4.63;;;1.87;;
15716;SDS011;7960;50.908;4.204;2022-09-21T11:25:57;4.23;;;2.40;;
15716;SDS011;7960;50.908;4.204;2022-09-21T11:28:31;12.23;;;3.47;;
15716;SDS011;7960;50.908;4.204;2022-09-21T11:31:15;6.53;;;2.27;;
15716;SDS011;7960;50.908;4.204;2022-09-21T11:34:01;5.80;;;3.60;;
15716;SDS011;7960;50.908;4.204;2022-09-21T11:36:43;16.80;;;3.33;;
15716;SDS011;7960;50.908;4.204;2022-09-21T11:39:20;11.07;;;2.93;;
15716;SDS011;7960;50.908;4.204;2022-09-21T11:42:04;13.27;;;3.50;;
15716;SDS011;7960;50.908;4.204;2022-09-21T11:44:43;5.40;;;2.60;;
15716;SDS011;7960;50.908;4.204;2022-09-21T11:47:21;7.07;;;3.40;;
15716;SDS011;7960;50.908;4.204;2022-09-21T11:50:18;7.93;;;3.13;;
15716;SDS011;7960;50.908;4.204;2022-09-21T11:53:06;16.33;;;4.40;;
15716;SDS011;7960;50.908;4.204;2022-09-21T11:55:55;7.80;;;1.97;;
15716;SDS011;7960;50.908;4.204;2022-09-21T11:58:45;6.83;;;2.80;;
15716;SDS011;7960;50.908;4.204;2022-09-21T12:01:27;6.27;;;2.33;;
15716;SDS011;7960;50.908;4.204;2022-09-21T12:04:30;4.80;;;2.77;;
15716;SDS011;7960;50.908;4.204;2022-09-21T12:07:09;5.10;;;2.20;;
15716;SDS011;7960;50.908;4.204;2022-09-21T12:12:40;7.03;;;2.10;;
15716;SDS011;7960;50.908;4.204;2022-09-21T12:15:16;20.90;;;3.00;;
15716;SDS011;7960;50.908;4.204;2022-09-21T12:17:50;20.70;;;4.23;;
15716;SDS011;7960;50.908;4.204;2022-09-21T12:20:25;9.00;;;2.30;;
15716;SDS011;7960;50.908;4.204;2022-09-21T12:23:00;8.93;;;2.20;;
15716;SDS011;7960;50.908;4.204;2022-09-21T12:25:30;13.00;;;3.43;;
15716;SDS011;7960;50.908;4.204;2022-09-21T12:28:02;7.87;;;2.43;;
15716;SDS011;7960;50.908;4.204;2022-09-21T12:30:35;7.17;;;2.10;;
15716;SDS011;7960;50.908;4.204;2022-09-21T12:33:05;5.60;;;2.20;;
15716;SDS011;7960;50.908;4.204;2022-09-21T12:35:41;4.07;;;1.87;;
15716;SDS011;7960;50.908;4.204;2022-09-21T12:38:12;10.03;;;2.43;;
15716;SDS011;7960;50.908;4.204;2022-09-21T12:40:43;3.40;;;1.70;;
15716;SDS011;7960;50.908;4.204;2022-09-21T12:43:19;5.60;;;2.17;;
15716;SDS011;7960;50.908;4.204;2022-09-21T12:45:55;5.60;;;2.10;;
15716;SDS011;7960;50.908;4.204;2022-09-21T12:48:27;8.63;;;2.23;;
15716;SDS011;7960;50.908;4.204;2022-09-21T12:50:56;5.67;;;1.73;;
15716;SDS011;7960;50.908;4.204;2022-09-21T12:53:24;4.87;;;2.10;;
15716;SDS011;7960;50.908;4.204;2022-09-21T12:55:54;4.60;;;2.23;;
15716;SDS011;7960;50.908;4.204;2022-09-21T12:58:32;9.10;;;2.63;;
15716;SDS011;7960;50.908;4.204;2022-09-21T13:01:17;11.27;;;2.57;;
15716;SDS011;7960;50.908;4.204;2022-09-21T13:03:59;3.20;;;1.80;;
15716;SDS011;7960;50.908;4.204;2022-09-21T13:06:54;4.10;;;1.90;;
15716;SDS011;7960;50.908;4.204;2022-09-21T13:09:33;10.00;;;2.93;;
15716;SDS011;7960;50.908;4.204;2022-09-21T13:12:06;7.60;;;1.90;;
15716;SDS011;7960;50.908;4.204;2022-09-21T13:14:40;6.83;;;2.10;;
15716;SDS011;7960;50.908;4.204;2022-09-21T13:17:17;5.83;;;1.90;;
15716;SDS011;7960;50.908;4.204;2022-09-21T13:19:54;8.07;;;2.00;;
15716;SDS011;7960;50.908;4.204;2022-09-21T13:22:23;4.57;;;1.87;;
15716;SDS011;7960;50.908;4.204;2022-09-21T13:24:57;4.97;;;1.60;;
15716;SDS011;7960;50.908;4.204;2022-09-21T13:36:31;11.67;;;2.40;;
15716;SDS011;7960;50.908;4.204;2022-09-21T13:41:44;10.07;;;3.00;;
15716;SDS011;7960;50.908;4.204;2022-09-21T13:44:18;7.27;;;2.63;;
15716;SDS011;7960;50.908;4.204;2022-09-21T13:47:00;12.67;;;2.93;;
15716;SDS011;7960;50.908;4.204;2022-09-21T13:52:25;10.40;;;4.03;;
15716;SDS011;7960;50.908;4.204;2022-09-21T13:54:56;8.73;;;2.67;;
15716;SDS011;7960;50.908;4.204;2022-09-21T13:57:27;9.77;;;3.20;;
15716;SDS011;7960;50.908;4.204;2022-09-21T14:02:57;5.73;;;2.43;;
15716;SDS011;7960;50.908;4.204;2022-09-21T14:05:29;4.33;;;1.90;;
15716;SDS011;7960;50.908;4.204;2022-09-21T14:08:02;5.73;;;2.20;;
15716;SDS011;7960;50.908;4.204;2022-09-21T14:10:30;6.33;;;2.30;;
15716;SDS011;7960;50.908;4.204;2022-09-21T14:12:59;2.40;;;1.90;;
15716;SDS011;7960;50.908;4.204;2022-09-21T14:15:35;4.43;;;1.80;;
15716;SDS011;7960;50.908;4.204;2022-09-21T14:21:06;4.17;;;1.97;;
15716;SDS011;7960;50.908;4.204;2022-09-21T14:23:35;5.20;;;2.20;;
15716;SDS011;7960;50.908;4.204;2022-09-21T14:26:18;8.70;;;2.33;;
15716;SDS011;7960;50.908;4.204;2022-09-21T14:28:47;2.80;;;1.60;;
15716;SDS011;7960;50.908;4.204;2022-09-21T14:31:16;3.87;;;2.00;;
15716;SDS011;7960;50.908;4.204;2022-09-21T14:33:45;8.00;;;2.37;;
15716;SDS011;7960;50.908;4.204;2022-09-21T14:36:15;4.27;;;1.87;;
15716;SDS011;7960;50.908;4.204;2022-09-21T14:38:46;4.50;;;1.93;;
15716;SDS011;7960;50.908;4.204;2022-09-21T14:41:15;5.40;;;2.03;;
15716;SDS011;7960;50.908;4.204;2022-09-21T14:43:47;7.13;;;2.70;;
15716;SDS011;7960;50.908;4.204;2022-09-21T14:49:15;8.60;;;2.50;;
15716;SDS011;7960;50.908;4.204;2022-09-21T14:51:47;6.23;;;2.10;;
15716;SDS011;7960;50.908;4.204;2022-09-21T14:54:28;8.03;;;2.47;;
15716;SDS011;7960;50.908;4.204;2022-09-21T14:57:13;5.37;;;1.70;;
15716;SDS011;7960;50.908;4.204;2022-09-21T14:59:47;7.53;;;2.27;;
15716;SDS011;7960;50.908;4.204;2022-09-21T15:02:18;11.50;;;2.80;;
15716;SDS011;7960;50.908;4.204;2022-09-21T15:04:57;7.20;;;2.40;;
15716;SDS011;7960;50.908;4.204;2022-09-21T15:07:29;5.47;;;1.90;;
15716;SDS011;7960;50.908;4.204;2022-09-21T15:10:19;8.30;;;2.37;;
15716;SDS011;7960;50.908;4.204;2022-09-21T15:13:08;6.70;;;2.57;;
15716;SDS011;7960;50.908;4.204;2022-09-21T15:15:37;5.67;;;3.03;;
15716;SDS011;7960;50.908;4.204;2022-09-21T15:18:11;3.70;;;1.80;;
15716;SDS011;7960;50.908;4.204;2022-09-21T15:20:42;16.13;;;4.10;;
15716;SDS011;7960;50.908;4.204;2022-09-21T15:23:15;4.63;;;2.13;;
15716;SDS011;7960;50.908;4.204;2022-09-21T15:25:44;10.40;;;2.60;;
15716;SDS011;7960;50.908;4.204;2022-09-21T15:28:20;9.77;;;2.60;;
15716;SDS011;7960;50.908;4.204;2022-09-21T15:30:47;6.70;;;2.13;;
15716;SDS011;7960;50.908;4.204;2022-09-21T15:33:14;5.00;;;2.30;;
15716;SDS011;7960;50.908;4.204;2022-09-21T15:35:44;4.70;;;2.10;;
15716;SDS011;7960;50.908;4.204;2022-09-21T15:38:24;4.70;;;1.83;;
15716;SDS011;7960;50.908;4.204;2022-09-21T15:40:53;6.40;;;2.50;;
15716;SDS011;7960;50.908;4.204;2022-09-21T15:43:20;4.87;;;2.10;;
15716;SDS011;7960;50.908;4.204;2022-09-21T15:45:48;14.30;;;8.70;;
15716;SDS011;7960;50.908;4.204;2022-09-21T15:48:18;7.07;;;3.83;;